Weather at Ninoy Aquino International Airport

Public forecast

Using degrees Celsius for public forecast. Weather courtesy of forecast.io.

Current aviation weather report (METAR) for Ninoy Aquino International Airport

Retrieved 2021/01/28 13:00 UTC (52 minutes ago):

RPLL 281300Z 12005KT 080V180 9999 FEW025 26/21 Q1013 NOSIG RMK A2991

Aviation forecast (TAF) for Ninoy Aquino International Airport

Retrieved 2021/01/28 12:00 UTC (2 hours ago):

TAF RPLL 281100Z 2812/2918 12008KT 9999 FEW025 SCT100 TX31/2906Z TN24/2821Z TEMPO 2812/2818 SCT023 BKN090 TEMPO 2903/2909 09017KT